sensor_id;sensor_type;location;lat;lon;timestamp;temperature;humidity
72338;DHT22;60294;64.134;-21.862;2022-12-08T00:01:05;-3272.50;79.60
72338;DHT22;60294;64.134;-21.862;2022-12-08T00:03:32;-3272.50;79.50
72338;DHT22;60294;64.134;-21.862;2022-12-08T00:05:57;-3272.50;79.60
72338;DHT22;60294;64.134;-21.862;2022-12-08T00:08:42;-3272.60;79.50
72338;DHT22;60294;64.134;-21.862;2022-12-08T00:11:31;-3272.60;79.40
72338;DHT22;60294;64.134;-21.862;2022-12-08T00:13:57;-3272.60;79.30
72338;DHT22;60294;64.134;-21.862;2022-12-08T00:16:23;-3272.50;79.30
72338;DHT22;60294;64.134;-21.862;2022-12-08T00:18:49;-3272.50;79.10
72338;DHT22;60294;64.134;-21.862;2022-12-08T00:21:15;-3272.60;79.10
72338;DHT22;60294;64.134;-21.862;2022-12-08T00:23:41;-3272.50;79.20
72338;DHT22;60294;64.134;-21.862;2022-12-08T00:26:06;-3272.50;79.20
72338;DHT22;60294;64.134;-21.862;2022-12-08T00:28:33;-3272.50;79.30
72338;DHT22;60294;64.134;-21.862;2022-12-08T00:30:59;-3272.50;79.10
72338;DHT22;60294;64.134;-21.862;2022-12-08T00:33:27;-3272.50;78.80
72338;DHT22;60294;64.134;-21.862;2022-12-08T00:35:53;-3272.50;78.70
72338;DHT22;60294;64.134;-21.862;2022-12-08T00:38:18;-3272.50;78.70
72338;DHT22;60294;64.134;-21.862;2022-12-08T00:40:46;-3272.40;78.70
72338;DHT22;60294;64.134;-21.862;2022-12-08T00:43:12;-3272.40;78.60
72338;DHT22;60294;64.134;-21.862;2022-12-08T00:45:38;-3272.40;78.80
72338;DHT22;60294;64.134;-21.862;2022-12-08T00:48:05;-3272.40;78.80
72338;DHT22;60294;64.134;-21.862;2022-12-08T00:50:31;-3272.40;78.70
72338;DHT22;60294;64.134;-21.862;2022-12-08T00:52:57;-3272.40;78.80
72338;DHT22;60294;64.134;-21.862;2022-12-08T00:55:23;-3272.40;78.80
72338;DHT22;60294;64.134;-21.862;2022-12-08T00:57:49;-3272.40;78.90
72338;DHT22;60294;64.134;-21.862;2022-12-08T01:00:15;-3272.40;78.80
72338;DHT22;60294;64.134;-21.862;2022-12-08T01:02:41;-3272.30;78.50
72338;DHT22;60294;64.134;-21.862;2022-12-08T01:05:07;-3272.20;78.20
72338;DHT22;60294;64.134;-21.862;2022-12-08T01:07:33;-3272.20;78.00
72338;DHT22;60294;64.134;-21.862;2022-12-08T01:09:59;-3272.20;78.40
72338;DHT22;60294;64.134;-21.862;2022-12-08T01:12:24;-3272.10;78.40
72338;DHT22;60294;64.134;-21.862;2022-12-08T01:14:50;-3272.20;78.50
72338;DHT22;60294;64.134;-21.862;2022-12-08T01:17:16;-3272.10;78.60
72338;DHT22;60294;64.134;-21.862;2022-12-08T01:19:42;-3272.20;78.70
72338;DHT22;60294;64.134;-21.862;2022-12-08T01:22:08;-3272.10;78.70
72338;DHT22;60294;64.134;-21.862;2022-12-08T01:24:34;-3272.10;78.70
72338;DHT22;60294;64.134;-21.862;2022-12-08T01:26:59;-3272.10;78.70
72338;DHT22;60294;64.134;-21.862;2022-12-08T01:29:26;-3272.10;78.70
72338;DHT22;60294;64.134;-21.862;2022-12-08T01:31:51;-3272.10;78.80
72338;DHT22;60294;64.134;-21.862;2022-12-08T01:34:17;-3272.10;78.70
72338;DHT22;60294;64.134;-21.862;2022-12-08T01:36:43;-3272.10;78.60
72338;DHT22;60294;64.134;-21.862;2022-12-08T01:39:13;-3272.00;78.40
72338;DHT22;60294;64.134;-21.862;2022-12-08T01:41:40;-3272.00;78.40
72338;DHT22;60294;64.134;-21.862;2022-12-08T01:46:40;-3272.00;78.20
72338;DHT22;60294;64.134;-21.862;2022-12-08T01:49:13;-3272.00;78.20
72338;DHT22;60294;64.134;-21.862;2022-12-08T01:51:44;-3272.00;78.10
72338;DHT22;60294;64.134;-21.862;2022-12-08T01:54:11;-3271.90;78.10
72338;DHT22;60294;64.134;-21.862;2022-12-08T01:59:40;-3271.80;78.30
72338;DHT22;60294;64.134;-21.862;2022-12-08T02:02:09;-3271.70;78.50
72338;DHT22;60294;64.134;-21.862;2022-12-08T02:04:36;-3271.70;78.40
72338;DHT22;60294;64.134;-21.862;2022-12-08T02:07:03;-3271.70;78.60
72338;DHT22;60294;64.134;-21.862;2022-12-08T02:09:29;-3271.70;78.40
72338;DHT22;60294;64.134;-21.862;2022-12-08T02:11:56;-3271.60;78.30
72338;DHT22;60294;64.134;-21.862;2022-12-08T02:14:23;-3271.60;78.30
72338;DHT22;60294;64.134;-21.862;2022-12-08T02:22:41;-3271.70;78.30
72338;DHT22;60294;64.134;-21.862;2022-12-08T02:28:05;-3271.60;77.90
72338;DHT22;60294;64.134;-21.862;2022-12-08T02:33:59;-3271.70;78.40
72338;DHT22;60294;64.134;-21.862;2022-12-08T02:42:39;-3271.90;77.80
72338;DHT22;60294;64.134;-21.862;2022-12-08T02:47:39;-3271.90;77.10
72338;DHT22;60294;64.134;-21.862;2022-12-08T02:50:06;-3271.90;77.10
72338;DHT22;60294;64.134;-21.862;2022-12-08T02:55:02;-3271.80;76.70
72338;DHT22;60294;64.134;-21.862;2022-12-08T03:00:21;-3271.90;76.20
72338;DHT22;60294;64.134;-21.862;2022-12-08T03:13:21;-3272.10;74.30
72338;DHT22;60294;64.134;-21.862;2022-12-08T03:15:50;-3272.00;74.40
72338;DHT22;60294;64.134;-21.862;2022-12-08T03:18:20;-3272.00;74.80
72338;DHT22;60294;64.134;-21.862;2022-12-08T03:20:48;-3272.00;74.90
72338;DHT22;60294;64.134;-21.862;2022-12-08T03:23:15;-3271.90;75.00
72338;DHT22;60294;64.134;-21.862;2022-12-08T03:26:02;-3271.80;75.00
72338;DHT22;60294;64.134;-21.862;2022-12-08T03:28:29;-3271.60;74.50
72338;DHT22;60294;64.134;-21.862;2022-12-08T03:30:59;-3271.80;75.40
72338;DHT22;60294;64.134;-21.862;2022-12-08T03:33:34;-3271.60;74.20
72338;DHT22;60294;64.134;-21.862;2022-12-08T03:36:03;-3271.60;74.20
72338;DHT22;60294;64.134;-21.862;2022-12-08T03:38:42;-3271.60;74.40
72338;DHT22;60294;64.134;-21.862;2022-12-08T03:41:09;-3271.60;74.30
72338;DHT22;60294;64.134;-21.862;2022-12-08T03:43:45;-3271.70;74.20
72338;DHT22;60294;64.134;-21.862;2022-12-08T03:46:13;-3271.70;74.20
72338;DHT22;60294;64.134;-21.862;2022-12-08T03:48:39;-3271.80;74.40
72338;DHT22;60294;64.134;-21.862;2022-12-08T03:51:05;-3271.80;74.40
72338;DHT22;60294;64.134;-21.862;2022-12-08T03:53:30;-3271.80;74.40
72338;DHT22;60294;64.134;-21.862;2022-12-08T03:55:56;-3271.80;74.40
72338;DHT22;60294;64.134;-21.862;2022-12-08T03:58:22;-3271.70;74.30
72338;DHT22;60294;64.134;-21.862;2022-12-08T04:00:48;-3271.70;74.60
72338;DHT22;60294;64.134;-21.862;2022-12-08T04:03:13;-3271.70;74.90
72338;DHT22;60294;64.134;-21.862;2022-12-08T04:05:39;-3271.70;74.90
72338;DHT22;60294;64.134;-21.862;2022-12-08T04:08:05;-3271.70;74.70
72338;DHT22;60294;64.134;-21.862;2022-12-08T04:10:31;-3271.70;75.00
72338;DHT22;60294;64.134;-21.862;2022-12-08T04:12:57;-3271.70;75.00
72338;DHT22;60294;64.134;-21.862;2022-12-08T04:15:22;-3271.70;74.80
72338;DHT22;60294;64.134;-21.862;2022-12-08T04:17:48;-3271.50;74.70
72338;DHT22;60294;64.134;-21.862;2022-12-08T04:20:14;-3271.50;74.90
72338;DHT22;60294;64.134;-21.862;2022-12-08T04:22:40;-3271.50;74.90
72338;DHT22;60294;64.134;-21.862;2022-12-08T04:25:06;-3271.50;75.10
72338;DHT22;60294;64.134;-21.862;2022-12-08T04:27:32;-3271.50;75.20
72338;DHT22;60294;64.134;-21.862;2022-12-08T04:29:58;-3271.40;75.00
72338;DHT22;60294;64.134;-21.862;2022-12-08T04:32:23;-3271.40;74.80
72338;DHT22;60294;64.134;-21.862;2022-12-08T04:34:49;-3271.40;74.90
72338;DHT22;60294;64.134;-21.862;2022-12-08T04:37:15;-3271.30;74.70
72338;DHT22;60294;64.134;-21.862;2022-12-08T04:39:40;-3271.20;74.90
72338;DHT22;60294;64.134;-21.862;2022-12-08T04:42:06;-3271.20;75.20
72338;DHT22;60294;64.134;-21.862;2022-12-08T04:44:32;-3271.20;75.30
72338;DHT22;60294;64.134;-21.862;2022-12-08T04:46:58;-3271.10;75.70
72338;DHT22;60294;64.134;-21.862;2022-12-08T04:49:24;-3271.10;75.60
72338;DHT22;60294;64.134;-21.862;2022-12-08T04:51:49;-3271.10;75.70
72338;DHT22;60294;64.134;-21.862;2022-12-08T04:54:15;-3271.00;75.80
72338;DHT22;60294;64.134;-21.862;2022-12-08T04:56:41;-3271.00;75.80
72338;DHT22;60294;64.134;-21.862;2022-12-08T04:59:07;-3270.90;75.90
72338;DHT22;60294;64.134;-21.862;2022-12-08T05:01:33;-3270.90;75.90
72338;DHT22;60294;64.134;-21.862;2022-12-08T05:03:59;-3270.90;75.90
72338;DHT22;60294;64.134;-21.862;2022-12-08T05:06:25;-3270.90;76.00
72338;DHT22;60294;64.134;-21.862;2022-12-08T05:08:50;-3270.90;76.00
72338;DHT22;60294;64.134;-21.862;2022-12-08T05:11:16;-3270.80;76.20
72338;DHT22;60294;64.134;-21.862;2022-12-08T05:13:42;-3270.80;76.30
72338;DHT22;60294;64.134;-21.862;2022-12-08T05:16:10;-3270.80;76.50
72338;DHT22;60294;64.134;-21.862;2022-12-08T05:18:38;-3270.90;76.50
72338;DHT22;60294;64.134;-21.862;2022-12-08T05:21:04;-3270.90;76.60
72338;DHT22;60294;64.134;-21.862;2022-12-08T05:23:31;-3270.90;76.50
72338;DHT22;60294;64.134;-21.862;2022-12-08T05:25:57;-3270.90;76.50
72338;DHT22;60294;64.134;-21.862;2022-12-08T05:28:23;-3270.90;76.20
72338;DHT22;60294;64.134;-21.862;2022-12-08T05:30:49;-3270.80;75.80
72338;DHT22;60294;64.134;-21.862;2022-12-08T05:33:14;-3270.80;75.90
72338;DHT22;60294;64.134;-21.862;2022-12-08T05:35:40;-3270.80;75.80
72338;DHT22;60294;64.134;-21.862;2022-12-08T05:38:06;-3270.70;75.20
72338;DHT22;60294;64.134;-21.862;2022-12-08T05:40:32;-3270.80;74.90
72338;DHT22;60294;64.134;-21.862;2022-12-08T05:42:58;-3270.80;74.30
72338;DHT22;60294;64.134;-21.862;2022-12-08T05:45:24;-3270.90;73.90
72338;DHT22;60294;64.134;-21.862;2022-12-08T05:47:52;-3271.00;73.10
72338;DHT22;60294;64.134;-21.862;2022-12-08T05:50:17;-3271.00;73.40
72338;DHT22;60294;64.134;-21.862;2022-12-08T05:52:43;-3270.90;73.50
72338;DHT22;60294;64.134;-21.862;2022-12-08T05:55:09;-3271.00;73.70
72338;DHT22;60294;64.134;-21.862;2022-12-08T05:57:35;-3271.00;73.50
72338;DHT22;60294;64.134;-21.862;2022-12-08T06:00:01;-3271.00;73.40
72338;DHT22;60294;64.134;-21.862;2022-12-08T06:02:27;-3271.00;73.40
72338;DHT22;60294;64.134;-21.862;2022-12-08T06:04:52;-3271.00;73.00
72338;DHT22;60294;64.134;-21.862;2022-12-08T06:07:18;-3271.10;73.00
72338;DHT22;60294;64.134;-21.862;2022-12-08T06:09:44;-3271.20;72.90
72338;DHT22;60294;64.134;-21.862;2022-12-08T06:12:10;-3271.30;72.70
72338;DHT22;60294;64.134;-21.862;2022-12-08T06:14:39;-3271.30;72.00
72338;DHT22;60294;64.134;-21.862;2022-12-08T06:17:05;-3271.30;71.60
72338;DHT22;60294;64.134;-21.862;2022-12-08T06:19:31;-3271.40;71.90
72338;DHT22;60294;64.134;-21.862;2022-12-08T06:21:56;-3271.50;70.80
72338;DHT22;60294;64.134;-21.862;2022-12-08T06:24:22;-3271.50;70.60
72338;DHT22;60294;64.134;-21.862;2022-12-08T06:26:48;-3271.60;71.00
72338;DHT22;60294;64.134;-21.862;2022-12-08T06:29:14;-3271.60;70.60
72338;DHT22;60294;64.134;-21.862;2022-12-08T06:31:40;-3271.70;70.90
72338;DHT22;60294;64.134;-21.862;2022-12-08T06:34:06;-3271.70;71.20
72338;DHT22;60294;64.134;-21.862;2022-12-08T06:36:31;-3271.60;71.90
72338;DHT22;60294;64.134;-21.862;2022-12-08T06:38:59;-3271.60;72.10
72338;DHT22;60294;64.134;-21.862;2022-12-08T06:41:25;-3271.60;72.00
72338;DHT22;60294;64.134;-21.862;2022-12-08T06:43:51;-3271.60;72.00
72338;DHT22;60294;64.134;-21.862;2022-12-08T06:46:18;-3271.70;71.30
72338;DHT22;60294;64.134;-21.862;2022-12-08T06:48:44;-3271.70;70.70
72338;DHT22;60294;64.134;-21.862;2022-12-08T06:51:12;-3271.80;70.20
72338;DHT22;60294;64.134;-21.862;2022-12-08T06:53:39;-3271.90;69.30
72338;DHT22;60294;64.134;-21.862;2022-12-08T06:56:05;-3272.00;68.50
72338;DHT22;60294;64.134;-21.862;2022-12-08T06:58:31;-3272.00;68.70
72338;DHT22;60294;64.134;-21.862;2022-12-08T07:01:02;-3271.90;68.70
72338;DHT22;60294;64.134;-21.862;2022-12-08T07:03:28;-3272.00;69.30
72338;DHT22;60294;64.134;-21.862;2022-12-08T07:05:55;-3272.00;68.70
72338;DHT22;60294;64.134;-21.862;2022-12-08T07:08:22;-3272.00;68.70
72338;DHT22;60294;64.134;-21.862;2022-12-08T07:10:47;-3271.90;68.80
72338;DHT22;60294;64.134;-21.862;2022-12-08T07:13:13;-3271.90;69.20
72338;DHT22;60294;64.134;-21.862;2022-12-08T07:15:39;-3271.80;68.80
72338;DHT22;60294;64.134;-21.862;2022-12-08T07:18:05;-3271.80;68.90
72338;DHT22;60294;64.134;-21.862;2022-12-08T07:20:31;-3271.70;68.70
72338;DHT22;60294;64.134;-21.862;2022-12-08T07:22:56;-3271.70;69.00
72338;DHT22;60294;64.134;-21.862;2022-12-08T07:25:22;-3271.70;69.50
72338;DHT22;60294;64.134;-21.862;2022-12-08T07:27:48;-3271.60;69.40
72338;DHT22;60294;64.134;-21.862;2022-12-08T07:30:16;-3271.50;69.70
72338;DHT22;60294;64.134;-21.862;2022-12-08T07:32:42;-3271.50;69.90
72338;DHT22;60294;64.134;-21.862;2022-12-08T07:35:08;-3271.40;69.90
72338;DHT22;60294;64.134;-21.862;2022-12-08T07:37:34;-3271.40;70.20
72338;DHT22;60294;64.134;-21.862;2022-12-08T07:40:00;-3271.30;70.10
72338;DHT22;60294;64.134;-21.862;2022-12-08T07:42:26;-3271.30;70.40
72338;DHT22;60294;64.134;-21.862;2022-12-08T07:44:52;-3271.20;70.80
72338;DHT22;60294;64.134;-21.862;2022-12-08T07:47:18;-3271.20;70.90
72338;DHT22;60294;64.134;-21.862;2022-12-08T07:49:43;-3271.10;71.10
72338;DHT22;60294;64.134;-21.862;2022-12-08T07:52:09;-3271.10;71.40
72338;DHT22;60294;64.134;-21.862;2022-12-08T07:54:35;-3271.10;71.50
72338;DHT22;60294;64.134;-21.862;2022-12-08T07:57:01;-3271.00;71.60
72338;DHT22;60294;64.134;-21.862;2022-12-08T07:59:28;-3271.00;71.80
72338;DHT22;60294;64.134;-21.862;2022-12-08T08:01:54;-3271.00;71.80
72338;DHT22;60294;64.134;-21.862;2022-12-08T08:04:20;-3271.00;71.80
72338;DHT22;60294;64.134;-21.862;2022-12-08T08:06:45;-3271.00;71.70
72338;DHT22;60294;64.134;-21.862;2022-12-08T08:09:11;-3270.90;72.10
72338;DHT22;60294;64.134;-21.862;2022-12-08T08:11:37;-3270.90;72.20
72338;DHT22;60294;64.134;-21.862;2022-12-08T08:14:03;-3270.90;72.10
72338;DHT22;60294;64.134;-21.862;2022-12-08T08:16:28;-3270.90;72.10
72338;DHT22;60294;64.134;-21.862;2022-12-08T08:18:56;-3270.90;72.00
72338;DHT22;60294;64.134;-21.862;2022-12-08T08:21:21;-3270.90;72.00
72338;DHT22;60294;64.134;-21.862;2022-12-08T08:23:47;-3270.90;72.00
72338;DHT22;60294;64.134;-21.862;2022-12-08T08:26:13;-3270.90;72.00
72338;DHT22;60294;64.134;-21.862;2022-12-08T08:28:39;-3270.80;72.30
72338;DHT22;60294;64.134;-21.862;2022-12-08T08:31:05;-3270.90;72.50
72338;DHT22;60294;64.134;-21.862;2022-12-08T08:33:32;-3270.90;72.60
72338;DHT22;60294;64.134;-21.862;2022-12-08T08:35:57;-3270.80;72.30
72338;DHT22;60294;64.134;-21.862;2022-12-08T08:38:23;-3270.80;72.50
72338;DHT22;60294;64.134;-21.862;2022-12-08T08:40:49;-3270.80;72.80
72338;DHT22;60294;64.134;-21.862;2022-12-08T08:43:15;-3270.80;72.80
72338;DHT22;60294;64.134;-21.862;2022-12-08T08:46:00;-3270.80;72.90
72338;DHT22;60294;64.134;-21.862;2022-12-08T08:48:28;-3270.80;73.00
72338;DHT22;60294;64.134;-21.862;2022-12-08T08:50:55;-3270.80;73.00
72338;DHT22;60294;64.134;-21.862;2022-12-08T08:53:21;-3270.80;73.10
72338;DHT22;60294;64.134;-21.862;2022-12-08T08:55:48;-3270.90;73.20
72338;DHT22;60294;64.134;-21.862;2022-12-08T08:58:14;-3270.90;73.00
72338;DHT22;60294;64.134;-21.862;2022-12-08T09:00:40;-3271.00;73.00
72338;DHT22;60294;64.134;-21.862;2022-12-08T09:03:05;-3271.00;73.00
72338;DHT22;60294;64.134;-21.862;2022-12-08T09:05:31;-3271.00;72.70
72338;DHT22;60294;64.134;-21.862;2022-12-08T09:07:57;-3271.10;72.40
72338;DHT22;60294;64.134;-21.862;2022-12-08T09:10:23;-3271.10;71.90
72338;DHT22;60294;64.134;-21.862;2022-12-08T09:12:49;-3271.10;72.10
72338;DHT22;60294;64.134;-21.862;2022-12-08T09:15:14;-3271.20;72.10
72338;DHT22;60294;64.134;-21.862;2022-12-08T09:17:40;-3271.20;72.20
72338;DHT22;60294;64.134;-21.862;2022-12-08T09:20:07;-3271.20;72.30
72338;DHT22;60294;64.134;-21.862;2022-12-08T09:22:33;-3271.20;72.10
72338;DHT22;60294;64.134;-21.862;2022-12-08T09:24:58;-3271.20;72.10
72338;DHT22;60294;64.134;-21.862;2022-12-08T09:27:24;-3271.20;72.10
72338;DHT22;60294;64.134;-21.862;2022-12-08T09:29:50;-3271.30;71.90
72338;DHT22;60294;64.134;-21.862;2022-12-08T09:32:16;-3271.20;71.90
72338;DHT22;60294;64.134;-21.862;2022-12-08T09:34:42;-3271.30;71.90
72338;DHT22;60294;64.134;-21.862;2022-12-08T09:37:08;-3271.30;71.60
72338;DHT22;60294;64.134;-21.862;2022-12-08T09:39:33;-3271.30;71.00
72338;DHT22;60294;64.134;-21.862;2022-12-08T09:42:02;-3271.40;71.40
72338;DHT22;60294;64.134;-21.862;2022-12-08T09:44:56;-3271.40;72.10
72338;DHT22;60294;64.134;-21.862;2022-12-08T09:47:36;-3271.40;71.70
72338;DHT22;60294;64.134;-21.862;2022-12-08T09:50:21;-3271.70;69.30
72338;DHT22;60294;64.134;-21.862;2022-12-08T09:55:49;-3272.10;69.10
72338;DHT22;60294;64.134;-21.862;2022-12-08T10:00:54;-3272.40;67.00
72338;DHT22;60294;64.134;-21.862;2022-12-08T10:03:23;-3272.50;67.20
72338;DHT22;60294;64.134;-21.862;2022-12-08T10:06:11;-3272.60;68.70
72338;DHT22;60294;64.134;-21.862;2022-12-08T10:11:39;-3273.20;66.30
72338;DHT22;60294;64.134;-21.862;2022-12-08T10:14:32;-3273.40;65.70
72338;DHT22;60294;64.134;-21.862;2022-12-08T10:17:04;-3273.50;66.60
72338;DHT22;60294;64.134;-21.862;2022-12-08T10:19:34;-3273.60;67.80
72338;DHT22;60294;64.134;-21.862;2022-12-08T10:22:00;-3273.60;68.50
72338;DHT22;60294;64.134;-21.862;2022-12-08T10:24:40;-3273.70;67.30
72338;DHT22;60294;64.134;-21.862;2022-12-08T10:27:11;-3273.70;68.10
72338;DHT22;60294;64.134;-21.862;2022-12-08T10:29:38;-3273.90;69.00
72338;DHT22;60294;64.134;-21.862;2022-12-08T10:32:16;-3274.00;67.20
72338;DHT22;60294;64.134;-21.862;2022-12-08T10:37:30;-3274.10;68.40
72338;DHT22;60294;64.134;-21.862;2022-12-08T10:40:09;-3274.10;68.20
72338;DHT22;60294;64.134;-21.862;2022-12-08T10:42:47;-3274.10;68.50
72338;DHT22;60294;64.134;-21.862;2022-12-08T10:45:19;-3274.10;67.30
72338;DHT22;60294;64.134;-21.862;2022-12-08T10:48:19;-3274.00;67.70
72338;DHT22;60294;64.134;-21.862;2022-12-08T10:50:46;-3274.10;68.70
72338;DHT22;60294;64.134;-21.862;2022-12-08T10:53:23;-3274.20;69.20
72338;DHT22;60294;64.134;-21.862;2022-12-08T10:55:51;-3274.30;69.20
72338;DHT22;60294;64.134;-21.862;2022-12-08T10:58:33;-3274.30;69.40
72338;DHT22;60294;64.134;-21.862;2022-12-08T11:01:20;-3274.40;69.30
72338;DHT22;60294;64.134;-21.862;2022-12-08T11:04:04;-3274.50;68.10
72338;DHT22;60294;64.134;-21.862;2022-12-08T11:06:36;-3274.60;69.00
72338;DHT22;60294;64.134;-21.862;2022-12-08T11:09:22;-3274.60;68.80
72338;DHT22;60294;64.134;-21.862;2022-12-08T11:11:54;-3274.60;66.60
72338;DHT22;60294;64.134;-21.862;2022-12-08T11:19:58;-3274.70;64.90
72338;DHT22;60294;64.134;-21.862;2022-12-08T11:22:33;-3274.80;65.80
72338;DHT22;60294;64.134;-21.862;2022-12-08T11:27:25;-3274.80;66.10
72338;DHT22;60294;64.134;-21.862;2022-12-08T11:29:51;-3274.80;66.20
72338;DHT22;60294;64.134;-21.862;2022-12-08T11:32:17;-3274.90;67.00
72338;DHT22;60294;64.134;-21.862;2022-12-08T11:34:56;-3274.90;67.60
72338;DHT22;60294;64.134;-21.862;2022-12-08T11:37:38;-3275.00;66.80
72338;DHT22;60294;64.134;-21.862;2022-12-08T11:40:22;-3275.10;65.50
72338;DHT22;60294;64.134;-21.862;2022-12-08T11:45:28;-3275.30;63.50
72338;DHT22;60294;64.134;-21.862;2022-12-08T11:48:22;-3275.30;63.30
72338;DHT22;60294;64.134;-21.862;2022-12-08T11:50:56;-3275.30;64.00
72338;DHT22;60294;64.134;-21.862;2022-12-08T11:56:56;-3275.30;63.30
72338;DHT22;60294;64.134;-21.862;2022-12-08T11:59:34;-3275.20;63.50
72338;DHT22;60294;64.134;-21.862;2022-12-08T12:02:24;-3275.20;63.40
72338;DHT22;60294;64.134;-21.862;2022-12-08T12:07:29;-3275.20;64.80
72338;DHT22;60294;64.134;-21.862;2022-12-08T12:10:15;-3275.10;65.40
72338;DHT22;60294;64.134;-21.862;2022-12-08T12:13:13;-3275.10;65.60
72338;DHT22;60294;64.134;-21.862;2022-12-08T12:18:57;-3275.00;66.40
72338;DHT22;60294;64.134;-21.862;2022-12-08T12:21:32;-3275.10;66.60
72338;DHT22;60294;64.134;-21.862;2022-12-08T12:24:21;-3275.20;67.60
72338;DHT22;60294;64.134;-21.862;2022-12-08T12:27:00;-3275.20;67.80
72338;DHT22;60294;64.134;-21.862;2022-12-08T12:29:30;-3275.20;67.50
72338;DHT22;60294;64.134;-21.862;2022-12-08T12:32:02;-3275.20;66.90
72338;DHT22;60294;64.134;-21.862;2022-12-08T12:34:32;-3275.20;67.50
72338;DHT22;60294;64.134;-21.862;2022-12-08T12:37:11;-3275.30;66.20
72338;DHT22;60294;64.134;-21.862;2022-12-08T12:42:43;-3275.30;65.90
72338;DHT22;60294;64.134;-21.862;2022-12-08T12:45:32;-3275.30;66.10
72338;DHT22;60294;64.134;-21.862;2022-12-08T12:55:56;-3275.10;67.40
72338;DHT22;60294;64.134;-21.862;2022-12-08T13:03:51;-3275.00;68.30
72338;DHT22;60294;64.134;-21.862;2022-12-08T13:06:38;-3275.10;67.40
72338;DHT22;60294;64.134;-21.862;2022-12-08T13:09:04;-3275.20;66.30
72338;DHT22;60294;64.134;-21.862;2022-12-08T13:11:45;-3275.40;64.60
72338;DHT22;60294;64.134;-21.862;2022-12-08T13:14:43;-3275.50;64.50
72338;DHT22;60294;64.134;-21.862;2022-12-08T13:17:12;-3275.60;64.30
72338;DHT22;60294;64.134;-21.862;2022-12-08T13:19:41;-3275.60;63.10
72338;DHT22;60294;64.134;-21.862;2022-12-08T13:28:16;-3275.80;63.50
72338;DHT22;60294;64.134;-21.862;2022-12-08T13:30:48;-3275.80;63.60
72338;DHT22;60294;64.134;-21.862;2022-12-08T13:33:36;-3275.90;63.30
72338;DHT22;60294;64.134;-21.862;2022-12-08T13:38:33;-3275.90;63.20
72338;DHT22;60294;64.134;-21.862;2022-12-08T13:41:11;-3276.00;63.00
72338;DHT22;60294;64.134;-21.862;2022-12-08T13:43:56;-3276.10;62.40
72338;DHT22;60294;64.134;-21.862;2022-12-08T13:46:45;-3276.10;63.20
72338;DHT22;60294;64.134;-21.862;2022-12-08T13:49:17;-3276.00;63.20
72338;DHT22;60294;64.134;-21.862;2022-12-08T13:51:47;-3276.00;63.80
72338;DHT22;60294;64.134;-21.862;2022-12-08T13:54:23;-3276.00;63.90
72338;DHT22;60294;64.134;-21.862;2022-12-08T13:56:50;-3276.10;63.40
72338;DHT22;60294;64.134;-21.862;2022-12-08T13:59:24;-3276.30;63.20
72338;DHT22;60294;64.134;-21.862;2022-12-08T14:01:57;-3276.40;62.80
72338;DHT22;60294;64.134;-21.862;2022-12-08T14:04:25;-3276.70;62.50
72338;DHT22;60294;64.134;-21.862;2022-12-08T14:06:57;0.00;61.80
72338;DHT22;60294;64.134;-21.862;2022-12-08T14:09:31;0.10;59.90
72338;DHT22;60294;64.134;-21.862;2022-12-08T14:12:05;0.30;58.50
72338;DHT22;60294;64.134;-21.862;2022-12-08T14:14:38;0.50;58.40
72338;DHT22;60294;64.134;-21.862;2022-12-08T14:17:10;0.60;58.10
72338;DHT22;60294;64.134;-21.862;2022-12-08T14:19:37;0.70;58.30
72338;DHT22;60294;64.134;-21.862;2022-12-08T14:22:11;0.80;58.10
72338;DHT22;60294;64.134;-21.862;2022-12-08T14:24:38;1.10;57.50
72338;DHT22;60294;64.134;-21.862;2022-12-08T14:27:12;1.20;57.60
72338;DHT22;60294;64.134;-21.862;2022-12-08T14:29:43;1.40;56.60
72338;DHT22;60294;64.134;-21.862;2022-12-08T14:32:29;1.60;55.80
72338;DHT22;60294;64.134;-21.862;2022-12-08T14:34:58;1.80;55.80
72338;DHT22;60294;64.134;-21.862;2022-12-08T14:37:27;1.90;55.50
72338;DHT22;60294;64.134;-21.862;2022-12-08T14:39:57;1.70;56.20
72338;DHT22;60294;64.134;-21.862;2022-12-08T14:42:25;1.20;59.20
72338;DHT22;60294;64.134;-21.862;2022-12-08T14:45:00;0.90;60.30
72338;DHT22;60294;64.134;-21.862;2022-12-08T14:47:29;0.70;61.70
72338;DHT22;60294;64.134;-21.862;2022-12-08T14:49:55;0.60;62.30
72338;DHT22;60294;64.134;-21.862;2022-12-08T14:52:23;0.40;64.50
72338;DHT22;60294;64.134;-21.862;2022-12-08T14:54:50;0.40;64.50
72338;DHT22;60294;64.134;-21.862;2022-12-08T14:57:16;0.30;65.50
72338;DHT22;60294;64.134;-21.862;2022-12-08T14:59:43;0.30;65.90
72338;DHT22;60294;64.134;-21.862;2022-12-08T15:05:10;0.20;65.90
72338;DHT22;60294;64.134;-21.862;2022-12-08T15:07:49;0.20;66.10
72338;DHT22;60294;64.134;-21.862;2022-12-08T15:12:59;0.20;65.80
72338;DHT22;60294;64.134;-21.862;2022-12-08T15:15:26;0.10;63.50
72338;DHT22;60294;64.134;-21.862;2022-12-08T15:18:58;0.10;63.10
72338;DHT22;60294;64.134;-21.862;2022-12-08T15:21:01;0.00;64.90
72338;DHT22;60294;64.134;-21.862;2022-12-08T15:23:38;-3276.70;66.20
72338;DHT22;60294;64.134;-21.862;2022-12-08T15:26:07;-3276.60;67.20
72338;DHT22;60294;64.134;-21.862;2022-12-08T15:28:33;-3276.50;67.30
72338;DHT22;60294;64.134;-21.862;2022-12-08T15:30:59;-3276.50;66.60
72338;DHT22;60294;64.134;-21.862;2022-12-08T15:33:25;-3276.40;66.90
72338;DHT22;60294;64.134;-21.862;2022-12-08T15:35:51;-3276.40;66.60
72338;DHT22;60294;64.134;-21.862;2022-12-08T15:38:27;-3276.30;64.70
72338;DHT22;60294;64.134;-21.862;2022-12-08T15:40:54;-3276.20;66.10
72338;DHT22;60294;64.134;-21.862;2022-12-08T15:43:21;-3276.10;65.10
72338;DHT22;60294;64.134;-21.862;2022-12-08T15:45:47;-3276.20;64.40
72338;DHT22;60294;64.134;-21.862;2022-12-08T15:48:28;-3276.20;66.10
72338;DHT22;60294;64.134;-21.862;2022-12-08T15:50:54;-3276.00;65.00
72338;DHT22;60294;64.134;-21.862;2022-12-08T15:53:21;-3276.00;66.00
72338;DHT22;60294;64.134;-21.862;2022-12-08T15:55:46;-3276.00;65.20
72338;DHT22;60294;64.134;-21.862;2022-12-08T15:58:22;-3276.00;65.60
72338;DHT22;60294;64.134;-21.862;2022-12-08T16:00:48;-3275.90;66.00
72338;DHT22;60294;64.134;-21.862;2022-12-08T16:03:24;-3275.90;66.80
72338;DHT22;60294;64.134;-21.862;2022-12-08T16:05:52;-3275.80;66.70
72338;DHT22;60294;64.134;-21.862;2022-12-08T16:08:18;-3275.90;66.60
72338;DHT22;60294;64.134;-21.862;2022-12-08T16:10:44;-3275.90;68.30
72338;DHT22;60294;64.134;-21.862;2022-12-08T16:16:00;-3276.00;67.10
72338;DHT22;60294;64.134;-21.862;2022-12-08T16:18:30;-3276.00;66.40
72338;DHT22;60294;64.134;-21.862;2022-12-08T16:20:57;-3276.00;67.90
72338;DHT22;60294;64.134;-21.862;2022-12-08T16:23:22;-3275.80;67.40
72338;DHT22;60294;64.134;-21.862;2022-12-08T16:25:48;-3275.90;66.20